Time;durP1;ratioP1;P1;durP2;ratioP2;P2;SDS_P1;SDS_P2;PMS_P1;PMS_P2;Temp;Humidity;BMP_temperature;BMP_pressure;BME280_temperature;BME280_humidity;BME280_pressure;Samples;Min_cycle;Max_cycle;Signal;HPM_P1;HPM_P2
2022/03/03 00:01:46;;;;;;;194.77;81.93;;;-2.80;99.90;;;;;;2585606;54;20699;31
2022/03/03 00:04:21;;;;;;;181.50;76.40;;;-2.80;99.90;;;;;;2585594;54;20049;31
2022/03/03 00:06:57;;;;;;;189.43;76.78;;;-2.90;99.90;;;;;;2603919;46;20810;31
2022/03/03 00:09:33;;;;;;;207.65;77.93;;;-2.90;99.90;;;;;;2604109;46;20153;31
2022/03/03 00:12:10;;;;;;;;;;;-2.90;99.90;;;;;;2585864;54;20026;31
2022/03/03 00:14:48;;;;;;;125.43;58.37;;;-2.90;99.90;;;;;;2585729;54;20722;31
2022/03/03 00:17:26;;;;;;;118.60;54.88;;;-2.90;99.90;;;;;;2603813;46;21171;31
2022/03/03 00:20:02;;;;;;;126.07;58.22;;;-3.00;99.90;;;;;;2585620;54;20030;31
2022/03/03 00:22:37;;;;;;;137.00;62.20;;;-2.90;99.90;;;;;;2585410;54;20057;31
2022/03/03 00:25:24;;;;;;;126.20;56.35;;;-3.00;99.90;;;;;;2585571;54;20037;31
2022/03/03 00:27:57;;;;;;;117.32;53.67;;;-3.00;99.90;;;;;;2585589;54;22056;31
2022/03/03 00:30:32;;;;;;;109.60;51.80;;;-3.10;99.90;;;;;;2585415;54;20915;31
2022/03/03 00:33:11;;;;;;;110.40;52.00;;;-3.10;99.90;;;;;;2585566;54;20977;31
2022/03/03 00:35:52;;;;;;;121.70;56.20;;;-3.20;99.90;;;;;;2584550;54;20947;31
2022/03/03 00:38:27;;;;;;;128.65;60.25;;;-3.10;99.90;;;;;;2584400;54;20830;31
2022/03/03 00:41:05;;;;;;;115.15;56.40;;;-3.20;99.90;;;;;;2584444;54;20923;31
2022/03/03 00:43:41;;;;;;;115.18;55.75;;;-3.20;99.90;;;;;;2584511;54;20831;31
2022/03/03 00:46:16;;;;;;;120.50;59.60;;;-3.30;99.90;;;;;;2585290;54;20046;31
2022/03/03 00:49:00;;;;;;;118.45;59.17;;;-3.40;99.90;;;;;;2584676;54;20030;31
2022/03/03 00:51:37;;;;;;;128.13;59.10;;;-3.40;99.90;;;;;;2585280;54;20030;31
2022/03/03 00:54:13;;;;;;;117.25;58.35;;;-3.50;99.90;;;;;;2585357;54;20031;31
2022/03/03 00:56:46;;;;;;;108.30;52.00;;;-3.50;99.90;;;;;;2585763;54;21887;31
2022/03/03 00:59:21;;;;;;;96.97;46.63;;;-3.50;99.90;;;;;;2584464;54;20135;31
2022/03/03 01:01:56;;;;;;;101.22;47.70;;;-3.50;99.90;;;;;;2603140;46;19966;31
2022/03/03 01:04:35;;;;;;;98.30;44.97;;;-3.50;99.90;;;;;;2585175;54;20042;31
2022/03/03 01:07:12;;;;;;;97.13;46.75;;;-3.50;99.90;;;;;;2585215;54;20026;31
2022/03/03 01:12:25;;;;;;;110.93;48.90;;;-3.50;99.90;;;;;;2603742;46;21012;31
2022/03/03 01:14:59;;;;;;;100.10;47.77;;;-3.60;99.90;;;;;;2603459;46;20031;31
2022/03/03 01:17:35;;;;;;;100.63;50.30;;;-3.70;99.90;;;;;;2585381;54;20033;31
2022/03/03 01:20:15;;;;;;;101.85;45.25;;;-3.60;99.90;;;;;;2585407;54;20933;31
2022/03/03 01:22:50;;;;;;;106.22;48.97;;;-3.70;99.90;;;;;;2682926;39;21542;31
2022/03/03 01:25:30;;;;;;;118.60;54.60;;;-3.70;99.90;;;;;;2603344;46;20084;31
2022/03/03 01:28:07;;;;;;;135.20;62.42;;;-3.70;99.90;;;;;;2584818;54;20902;31
2022/03/03 01:30:43;;;;;;;135.18;60.97;;;-3.80;99.90;;;;;;2585493;54;21855;31
2022/03/03 01:33:20;;;;;;;;;;;-3.80;99.90;;;;;;2585322;54;20953;31
2022/03/03 01:35:59;;;;;;;130.55;60.65;;;-3.80;99.90;;;;;;2585213;54;20872;31
2022/03/03 01:38:36;;;;;;;107.40;49.70;;;-3.90;99.90;;;;;;2592312;46;21026;31
2022/03/03 01:41:10;;;;;;;107.10;49.40;;;-3.90;99.90;;;;;;2599831;46;21881;31
2022/03/03 01:43:47;;;;;;;114.00;56.40;;;-3.90;99.90;;;;;;2584351;54;20844;31
2022/03/03 01:46:24;;;;;;;106.03;51.25;;;-4.00;99.90;;;;;;2603743;46;20030;31
2022/03/03 01:48:59;;;;;;;98.72;46.60;;;-4.00;99.90;;;;;;2584224;54;20860;31
2022/03/03 01:51:35;;;;;;;95.95;45.90;;;-4.00;99.90;;;;;;2585313;54;20925;31
2022/03/03 01:54:11;;;;;;;123.35;57.10;;;-4.00;99.90;;;;;;2585199;54;20581;31
2022/03/03 01:56:49;;;;;;;106.50;54.35;;;-4.00;99.90;;;;;;2683073;39;21062;31
2022/03/03 01:59:24;;;;;;;104.50;50.15;;;-4.10;99.90;;;;;;2584380;54;20788;31
2022/03/03 02:02:00;;;;;;;103.82;53.95;;;-4.10;99.90;;;;;;2584221;54;20924;31
2022/03/03 02:04:35;;;;;;;119.45;56.63;;;-4.10;99.90;;;;;;2584508;54;20882;31
2022/03/03 02:07:13;;;;;;;116.47;57.17;;;-4.10;99.90;;;;;;2683219;39;21106;31
2022/03/03 02:09:48;;;;;;;104.10;50.53;;;-4.10;99.90;;;;;;2585166;54;20562;31
2022/03/03 02:12:24;;;;;;;113.00;54.20;;;-4.20;99.90;;;;;;2683114;39;21004;31
2022/03/03 02:14:59;;;;;;;;;;;-4.20;99.90;;;;;;2603336;47;20034;31
2022/03/03 02:17:34;;;;;;;111.93;54.22;;;-4.20;99.90;;;;;;2584900;54;20900;31
2022/03/03 02:20:07;;;;;;;91.68;44.60;;;-4.20;99.90;;;;;;2603567;47;20898;31
2022/03/03 02:22:44;;;;;;;93.33;48.17;;;-4.20;99.90;;;;;;2585215;54;20573;31
2022/03/03 02:25:19;;;;;;;97.10;48.15;;;-4.20;99.90;;;;;;2584872;54;20920;31
2022/03/03 02:27:58;;;;;;;90.60;45.40;;;-4.20;99.90;;;;;;2603368;47;21193;31
2022/03/03 02:30:33;;;;;;;103.90;52.30;;;-4.30;99.90;;;;;;2584998;54;20030;31
2022/03/03 02:33:11;;;;;;;89.30;47.07;;;-4.30;99.90;;;;;;2584170;54;20035;31
2022/03/03 02:35:49;;;;;;;94.32;44.78;;;-4.30;99.90;;;;;;2585041;54;20030;31
2022/03/03 02:38:27;;;;;;;89.80;45.00;;;-4.40;99.90;;;;;;2584879;54;20107;31
2022/03/03 02:41:02;;;;;;;91.03;43.33;;;-4.40;99.90;;;;;;2584749;54;20321;31
2022/03/03 02:43:39;;;;;;;107.47;52.83;;;-4.40;99.90;;;;;;2585063;54;20242;31
2022/03/03 02:46:14;;;;;;;121.50;56.40;;;-4.30;99.90;;;;;;2584894;54;20969;31
2022/03/03 02:48:49;;;;;;;119.67;53.67;;;-4.30;99.90;;;;;;2585120;54;22465;31
2022/03/03 02:51:26;;;;;;;113.10;51.60;;;-4.40;99.90;;;;;;2603217;47;20931;31
2022/03/03 02:54:03;;;;;;;129.27;57.63;;;-4.40;99.90;;;;;;2584990;54;20030;31
2022/03/03 02:57:53;;;;;;;110.65;55.70;;;-4.40;99.90;;;;;;2603065;47;20885;31
2022/03/03 02:59:34;;;;;;;134.10;59.75;;;-4.40;99.90;;;;;;2584729;54;20180;31
2022/03/03 03:02:11;;;;;;;105.65;49.15;;;-4.40;99.90;;;;;;2584750;54;20964;31
2022/03/03 03:04:44;;;;;;;98.90;44.60;;;-4.50;99.90;;;;;;2585505;54;20036;31
2022/03/03 03:07:18;;;;;;;107.88;50.70;;;-4.50;99.90;;;;;;2585909;54;22502;31
2022/03/03 03:09:56;;;;;;;101.50;47.50;;;-4.50;99.90;;;;;;2585525;54;20053;31
2022/03/03 03:12:33;;;;;;;108.50;51.30;;;-4.50;99.90;;;;;;2604072;46;20073;31
2022/03/03 03:15:10;;;;;;;113.00;54.90;;;-4.50;99.90;;;;;;2585697;54;20052;31
2022/03/03 03:18:10;;;;;;;103.45;50.20;;;-4.50;99.90;;;;;;2585419;54;20235;31
2022/03/03 03:20:51;;;;;;;110.32;54.38;;;-4.60;99.90;;;;;;2585476;54;20026;31
2022/03/03 03:23:26;;;;;;;115.22;54.65;;;-4.60;99.90;;;;;;2683106;39;21553;31
2022/03/03 03:26:07;;;;;;;107.47;54.03;;;-4.50;99.90;;;;;;2585526;54;20108;31
2022/03/03 03:28:46;;;;;;;111.50;53.35;;;-4.50;99.90;;;;;;2603530;46;20049;31
2022/03/03 03:31:19;;;;;;;106.15;50.45;;;-4.50;99.90;;;;;;2585590;54;20856;31
2022/03/03 03:33:57;;;;;;;117.45;56.35;;;-4.50;99.90;;;;;;2682532;39;21460;31
2022/03/03 03:36:34;;;;;;;113.95;56.05;;;-4.50;99.90;;;;;;2585636;54;20917;31
2022/03/03 03:41:47;;;;;;;100.13;48.65;;;-4.40;99.90;;;;;;2585640;54;20034;31
2022/03/03 03:44:21;;;;;;;97.55;48.95;;;-4.40;99.90;;;;;;2604125;46;20798;31
2022/03/03 03:46:54;;;;;;;110.32;53.13;;;-4.30;99.90;;;;;;2585416;54;20074;31
2022/03/03 03:49:27;;;;;;;121.10;60.00;;;-4.30;99.90;;;;;;2683594;39;21040;31
2022/03/03 03:52:01;;;;;;;113.28;56.38;;;-4.30;99.90;;;;;;2585354;54;20027;31
2022/03/03 03:54:36;;;;;;;101.70;48.80;;;-4.30;99.90;;;;;;2585584;54;20030;31
2022/03/03 03:57:14;;;;;;;105.35;53.55;;;-4.20;99.90;;;;;;2682590;39;21411;31
2022/03/03 03:59:50;;;;;;;124.60;58.60;;;-4.10;99.90;;;;;;2585579;54;20960;31
2022/03/03 04:02:25;;;;;;;128.60;58.80;;;-4.10;99.90;;;;;;2585676;54;20030;31
2022/03/03 04:05:01;;;;;;;126.20;59.85;;;-4.10;99.90;;;;;;2584520;54;20957;31
2022/03/03 04:07:37;;;;;;;119.25;57.90;;;-4.00;99.90;;;;;;2584868;54;20840;31
2022/03/03 04:10:12;;;;;;;;;;;-4.00;99.90;;;;;;2585825;54;20053;31
2022/03/03 04:12:50;;;;;;;121.70;55.28;;;-3.90;99.90;;;;;;2603975;46;20827;31
2022/03/03 04:15:23;;;;;;;135.93;63.83;;;-3.90;99.90;;;;;;2603239;46;21075;31
2022/03/03 04:17:58;;;;;;;133.20;60.45;;;-3.90;99.90;;;;;;2585590;54;20030;31
2022/03/03 04:20:33;;;;;;;115.25;53.55;;;-3.90;99.90;;;;;;2603611;46;20033;31
2022/03/03 04:23:10;;;;;;;124.80;55.10;;;-3.80;99.90;;;;;;2585427;54;20030;31
2022/03/03 04:25:44;;;;;;;117.13;54.07;;;-3.80;99.90;;;;;;2585439;54;20038;31
2022/03/03 04:28:20;;;;;;;126.85;60.90;;;-3.70;99.90;;;;;;2585461;54;20945;31
2022/03/03 04:30:54;;;;;;;;;;;-3.70;99.90;;;;;;2585890;54;20026;31
2022/03/03 04:33:28;;;;;;;123.75;58.50;;;-3.70;99.90;;;;;;2585392;54;19947;31
2022/03/03 04:36:05;;;;;;;118.45;60.33;;;-3.60;99.90;;;;;;2585332;54;20031;31
2022/03/03 04:38:39;;;;;;;120.33;58.00;;;-3.70;99.90;;;;;;2585447;54;20997;31
2022/03/03 04:41:16;;;;;;;130.60;65.20;;;-3.60;99.90;;;;;;2585320;54;20849;31
2022/03/03 04:44:00;;;;;;;125.55;62.78;;;-3.50;99.90;;;;;;2585352;54;20974;31
2022/03/03 04:46:37;;;;;;;132.40;62.93;;;-3.40;99.90;;;;;;2585365;54;20031;31
2022/03/03 04:49:12;;;;;;;122.90;61.10;;;-3.40;99.90;;;;;;2584802;54;20235;31
2022/03/03 04:51:47;;;;;;;126.85;63.60;;;-3.40;99.90;;;;;;2682910;39;21449;31
2022/03/03 04:54:47;;;;;;;126.32;65.88;;;-3.30;99.90;;;;;;2585530;54;20060;31
2022/03/03 04:57:22;;;;;;;128.93;65.72;;;-3.30;99.90;;;;;;2585139;54;20823;31
2022/03/03 05:00:01;;;;;;;130.23;66.97;;;-3.30;99.90;;;;;;2599886;46;20084;31
2022/03/03 05:02:38;;;;;;;129.88;65.05;;;-3.20;99.90;;;;;;2754104;31;21177;31
2022/03/03 05:05:15;;;;;;;122.60;64.40;;;-3.30;99.90;;;;;;2603657;46;22554;31
2022/03/03 05:07:52;;;;;;;128.05;65.20;;;-3.30;99.90;;;;;;2597181;46;20112;31
2022/03/03 05:10:28;;;;;;;127.93;63.40;;;-3.20;99.90;;;;;;2585112;54;20038;31
2022/03/03 05:13:03;;;;;;;110.85;56.75;;;-3.20;99.90;;;;;;2585357;54;21104;31
2022/03/03 05:15:42;;;;;;;106.47;52.05;;;-3.10;99.90;;;;;;2585252;54;20982;31
2022/03/03 05:18:17;;;;;;;107.40;55.25;;;-3.10;99.90;;;;;;2585157;54;20842;31
2022/03/03 05:20:53;;;;;;;99.40;47.40;;;-3.10;99.90;;;;;;2603558;46;20813;31
2022/03/03 05:23:33;;;;;;;98.07;48.37;;;-3.10;99.90;;;;;;2603502;46;21611;31
2022/03/03 05:26:06;;;;;;;110.35;57.58;;;-3.00;99.90;;;;;;2585085;54;20881;31
2022/03/03 05:28:39;;;;;;;123.90;62.15;;;-3.00;99.90;;;;;;2585312;54;20962;31
2022/03/03 05:31:16;;;;;;;122.35;62.70;;;-3.00;99.90;;;;;;2585385;54;20085;31
2022/03/03 05:33:50;;;;;;;110.15;56.15;;;-3.00;99.90;;;;;;2603785;46;22381;31
2022/03/03 05:36:27;;;;;;;104.45;50.50;;;-2.90;99.90;;;;;;2683253;39;21058;31
2022/03/03 05:39:03;;;;;;;95.55;48.85;;;-3.00;99.90;;;;;;2603054;46;21032;31
2022/03/03 05:41:43;;;;;;;124.85;61.25;;;-2.90;99.90;;;;;;2585519;54;20932;31
2022/03/03 05:44:17;;;;;;;122.25;57.20;;;-2.90;99.90;;;;;;2585207;54;20990;31
2022/03/03 05:46:53;;;;;;;103.95;53.58;;;-2.80;99.90;;;;;;2585029;54;20031;31
2022/03/03 05:49:28;;;;;;;97.03;48.22;;;-2.90;99.90;;;;;;2683091;39;21461;31
2022/03/03 05:52:01;;;;;;;127.30;61.45;;;-2.80;99.90;;;;;;2585206;54;20945;31
2022/03/03 05:54:36;;;;;;;125.68;63.50;;;-2.80;99.90;;;;;;2584996;54;20138;31
2022/03/03 06:06:31;;;;;;;111.60;56.00;;;-2.70;99.90;;;;;;2584260;54;20915;31
2022/03/03 06:09:11;;;;;;;114.07;58.65;;;-2.60;99.90;;;;;;2585379;54;20030;31
2022/03/03 06:11:49;;;;;;;127.60;63.45;;;-2.60;99.90;;;;;;2585229;54;20569;31
2022/03/03 06:14:26;;;;;;;117.90;61.10;;;-2.50;99.90;;;;;;2595018;47;20053;31
2022/03/03 06:17:04;;;;;;;124.78;63.75;;;-2.50;99.90;;;;;;2603686;47;20249;31
2022/03/03 06:22:35;;;;;;;132.45;66.75;;;-2.50;99.90;;;;;;2584785;54;20022;31
2022/03/03 06:25:15;;;;;;;129.60;67.53;;;-2.50;99.90;;;;;;2585083;54;20557;31
2022/03/03 06:27:56;;;;;;;133.15;65.15;;;-2.40;99.90;;;;;;2585172;54;20811;31
2022/03/03 06:30:45;;;;;;;132.20;67.35;;;-2.40;99.90;;;;;;2599892;47;20874;31
2022/03/03 06:33:28;;;;;;;146.45;68.45;;;-2.40;99.90;;;;;;2584978;54;20933;31
2022/03/03 06:36:03;;;;;;;141.45;69.82;;;-2.30;99.90;;;;;;2602442;47;20913;31
2022/03/03 06:38:40;;;;;;;119.82;61.40;;;-2.30;99.90;;;;;;2584596;54;21490;31
2022/03/03 06:41:25;;;;;;;145.85;72.22;;;-2.20;99.90;;;;;;2585905;54;20796;31
2022/03/03 07:02:30;;;;;;;151.25;73.95;;;-1.80;99.90;;;;;;2604742;54;20015;31
2022/03/03 07:42:18;;;;;;;;;;;-0.70;99.90;;;;;;2604385;46;20489;31
2022/03/03 07:44:58;;;;;;;115.63;60.30;;;-0.60;99.90;;;;;;2602550;46;19993;31
2022/03/03 07:47:53;;;;;;;120.25;60.95;;;-0.60;99.90;;;;;;2585577;54;20045;31
2022/03/03 07:50:39;;;;;;;119.55;59.22;;;-0.50;99.90;;;;;;2585043;54;19942;31
2022/03/03 07:53:16;;;;;;;116.82;59.67;;;-0.50;99.90;;;;;;2585257;54;19934;31
2022/03/03 07:59:12;;;;;;;119.18;63.35;;;-0.30;99.90;;;;;;2585362;54;20026;31
2022/03/03 08:02:05;;;;;;;120.40;60.50;;;-0.30;99.90;;;;;;2604374;46;21170;31
2022/03/03 08:04:42;;;;;;;115.65;60.90;;;-0.20;99.90;;;;;;2584577;54;20060;31
2022/03/03 08:10:24;;;;;;;120.00;60.65;;;-0.20;99.90;;;;;;2603529;46;20838;31
2022/03/03 08:13:16;;;;;;;122.68;63.80;;;-0.20;99.90;;;;;;2585413;54;20093;31
2022/03/03 08:19:01;;;;;;;113.45;59.38;;;0.50;99.90;;;;;;2585303;54;20992;31
2022/03/03 08:21:46;;;;;;;107.80;58.00;;;1.10;99.90;;;;;;2585489;54;20870;31
2022/03/03 08:24:29;;;;;;;106.80;53.20;;;1.90;99.90;;;;;;2585659;54;20069;31
2022/03/03 08:27:06;;;;;;;103.38;56.28;;;2.60;99.90;;;;;;2604065;46;20825;31
2022/03/03 08:29:40;;;;;;;102.45;57.60;;;3.30;99.90;;;;;;2585599;54;20026;31
2022/03/03 08:32:25;;;;;;;96.70;55.63;;;3.80;99.90;;;;;;2682948;39;21369;31
2022/03/03 08:35:13;;;;;;;102.07;52.40;;;4.30;99.90;;;;;;2585277;54;20056;31
2022/03/03 08:37:53;;;;;;;99.45;54.00;;;4.70;99.90;;;;;;2683268;39;20358;31
2022/03/03 08:40:28;;;;;;;89.43;51.50;;;5.10;99.90;;;;;;2585321;54;20901;31
2022/03/03 08:45:37;;;;;;;81.40;44.55;;;5.50;99.90;;;;;;2585406;54;20901;31
2022/03/03 08:48:18;;;;;;;80.32;46.15;;;5.80;99.90;;;;;;2585514;54;22445;31
2022/03/03 08:50:54;;;;;;;90.43;45.70;;;6.10;99.90;;;;;;2585142;54;20030;31
2022/03/03 08:53:29;;;;;;;79.95;45.75;;;6.40;99.90;;;;;;2603287;46;20926;31
2022/03/03 08:56:04;;;;;;;68.40;40.65;;;6.70;99.90;;;;;;2585374;54;20946;31
2022/03/03 08:58:40;;;;;;;70.38;39.70;;;7.00;99.90;;;;;;2585139;54;20023;31
2022/03/03 09:01:17;;;;;;;61.67;38.83;;;7.30;99.90;;;;;;2584972;54;20815;31
2022/03/03 09:03:55;;;;;;;67.80;40.47;;;7.60;99.90;;;;;;2584699;54;20587;31
2022/03/03 09:06:32;;;;;;;75.20;42.70;;;7.90;99.90;;;;;;2585138;54;20805;31
2022/03/03 09:09:11;;;;;;;61.75;37.83;;;8.10;99.90;;;;;;2603256;46;20822;31
2022/03/03 09:11:48;;;;;;;66.00;39.25;;;8.30;99.90;;;;;;2584920;54;20037;31
2022/03/03 09:14:30;;;;;;;70.18;39.85;;;8.40;99.90;;;;;;2585045;54;20831;31
2022/03/03 09:17:04;;;;;;;63.80;40.30;;;8.50;99.90;;;;;;2585165;54;21284;31
2022/03/03 09:19:41;;;;;;;67.55;40.05;;;8.70;99.90;;;;;;2584164;54;20921;31
2022/03/03 09:22:15;;;;;;;;;;;8.70;99.90;;;;;;2604058;46;20027;31
2022/03/03 09:24:52;;;;;;;71.70;40.40;;;9.00;99.90;;;;;;2682458;39;20394;31
2022/03/03 09:27:27;;;;;;;;;;;9.10;99.90;;;;;;2584360;54;20992;31
2022/03/03 09:30:02;;;;;;;61.77;36.47;;;9.20;99.90;;;;;;2584067;54;20013;31
2022/03/03 09:32:36;;;;;;;;;;;9.30;99.90;;;;;;2597427;46;20056;31
2022/03/03 09:35:14;;;;;;;62.13;36.95;;;9.50;99.90;;;;;;2583932;54;19940;31
2022/03/03 09:37:49;;;;;;;59.47;34.75;;;9.60;99.90;;;;;;2682420;39;20639;31
2022/03/03 09:40:25;;;;;;;55.63;34.22;;;9.60;98.90;;;;;;2603188;46;20030;31
2022/03/03 09:43:01;;;;;;;59.60;34.10;;;9.60;97.80;;;;;;2584699;54;20666;31
2022/03/03 09:45:40;;;;;;;53.80;33.75;;;9.70;97.40;;;;;;2585020;54;20026;31
2022/03/03 09:48:21;;;;;;;50.87;33.33;;;9.70;97.00;;;;;;2584777;54;20030;31
2022/03/03 09:51:00;;;;;;;56.15;35.05;;;9.80;94.90;;;;;;2584838;54;20052;31
2022/03/03 09:53:34;;;;;;;55.03;33.13;;;9.80;95.80;;;;;;2602966;46;21227;31
2022/03/03 09:56:10;;;;;;;54.00;32.80;;;9.90;95.40;;;;;;2584734;54;20999;31
2022/03/03 09:58:49;;;;;;;53.80;33.55;;;10.00;94.00;;;;;;2584893;54;20878;31
2022/03/03 10:01:25;;;;;;;50.08;31.35;;;10.00;94.40;;;;;;2584678;54;21039;31
2022/03/03 10:04:01;;;;;;;47.57;31.30;;;10.10;93.40;;;;;;2583872;54;21536;31
2022/03/03 10:09:04;;;;;;;50.50;32.40;;;10.10;92.90;;;;;;2584976;47;19981;31
2022/03/03 10:11:42;;;;;;;39.85;27.73;;;10.20;93.50;;;;;;2583283;54;20767;31
2022/03/03 10:14:23;;;;;;;48.50;29.00;;;10.20;92.10;;;;;;2594679;47;21450;31
2022/03/03 10:16:57;;;;;;;47.67;29.10;;;10.20;91.50;;;;;;2587506;46;20035;31
2022/03/03 10:19:56;;;;;;;43.60;26.60;;;10.30;91.90;;;;;;2604159;46;21034;31
2022/03/03 10:22:44;;;;;;;40.53;25.45;;;10.30;90.60;;;;;;2585627;54;20258;31
2022/03/03 10:27:55;;;;;;;39.60;25.85;;;10.30;90.80;;;;;;2585364;54;20072;31
2022/03/03 10:30:30;;;;;;;34.93;22.60;;;10.30;90.30;;;;;;2685215;39;21423;31
2022/03/03 10:33:18;;;;;;;39.20;24.53;;;10.20;87.20;;;;;;2585211;54;21534;31
2022/03/03 10:36:04;;;;;;;37.20;24.95;;;10.20;87.50;;;;;;2585416;54;20022;31
2022/03/03 10:39:09;;;;;;;41.50;24.70;;;10.10;87.20;;;;;;2604136;46;20034;31
2022/03/03 10:41:44;;;;;;;40.93;25.87;;;10.10;87.90;;;;;;2595328;46;20191;31
2022/03/03 10:44:24;;;;;;;41.50;28.10;;;10.10;88.80;;;;;;2585558;54;20058;31
2022/03/03 10:47:04;;;;;;;45.63;28.42;;;10.10;89.40;;;;;;2585343;54;20062;31
2022/03/03 10:49:39;;;;;;;43.15;26.33;;;10.00;89.20;;;;;;2585311;54;21489;31
2022/03/03 10:52:17;;;;;;;45.72;28.98;;;9.90;90.10;;;;;;2584454;54;20023;31
2022/03/03 10:54:55;;;;;;;41.85;26.25;;;9.90;90.00;;;;;;2603964;46;20088;31
2022/03/03 10:57:39;;;;;;;43.70;26.00;;;9.90;89.10;;;;;;2585395;54;20073;31
2022/03/03 11:00:12;;;;;;;39.10;26.60;;;10.00;88.10;;;;;;2702077;39;21373;31
2022/03/03 11:02:51;;;;;;;44.70;26.80;;;10.00;90.30;;;;;;2603127;46;21202;31
2022/03/03 11:05:30;;;;;;;45.85;28.77;;;10.10;89.60;;;;;;2585434;54;20149;31
2022/03/03 11:10:41;;;;;;;41.33;27.63;;;10.10;90.00;;;;;;2585106;54;20053;31
2022/03/03 11:13:16;;;;;;;37.45;26.40;;;10.10;88.90;;;;;;2585113;54;20946;31
2022/03/03 11:15:51;;;;;;;40.58;27.10;;;10.00;89.40;;;;;;2585395;54;20065;31
2022/03/03 11:18:38;;;;;;;41.22;26.27;;;9.90;88.80;;;;;;2600459;46;20029;31
2022/03/03 11:21:13;;;;;;;;;;;10.00;89.00;;;;;;2584994;54;20022;31
2022/03/03 11:23:49;;;;;;;27.48;18.65;;;9.80;88.20;;;;;;2584435;54;20838;31
2022/03/03 11:26:27;;;;;;;30.90;19.10;;;9.70;89.10;;;;;;2603473;47;20803;31
2022/03/03 11:29:05;;;;;;;34.35;20.45;;;9.60;89.00;;;;;;2584272;54;20811;31
2022/03/03 11:31:44;;;;;;;29.30;19.77;;;9.40;89.20;;;;;;2601544;46;20076;31
2022/03/03 11:34:32;;;;;;;30.33;19.98;;;9.20;88.20;;;;;;2587790;46;20798;31
2022/03/03 11:37:09;;;;;;;27.35;19.50;;;9.10;88.70;;;;;;2585568;54;20802;31
2022/03/03 11:39:48;;;;;;;30.05;19.90;;;9.00;88.70;;;;;;2585108;54;20033;31
2022/03/03 11:42:32;;;;;;;29.05;18.75;;;8.90;88.80;;;;;;2585359;54;20026;31
2022/03/03 11:45:22;;;;;;;27.70;18.80;;;8.90;88.80;;;;;;2585337;54;20038;31
2022/03/03 11:48:10;;;;;;;27.27;19.13;;;8.80;88.40;;;;;;2585184;54;20046;31
2022/03/03 11:57:02;;;;;;;24.83;17.00;;;8.60;88.80;;;;;;2584125;54;20030;31
2022/03/03 11:59:42;;;;;;;24.55;16.55;;;8.60;89.20;;;;;;2585407;54;20053;31
2022/03/03 12:02:18;;;;;;;32.07;19.23;;;8.50;95.30;;;;;;2585285;54;19946;31
2022/03/03 12:05:18;;;;;;;28.70;19.57;;;8.60;89.60;;;;;;2585296;54;21000;31
2022/03/03 12:07:58;;;;;;;35.90;20.23;;;8.80;92.10;;;;;;2585369;54;20086;31
2022/03/03 12:13:46;;;;;;;30.60;21.40;;;9.00;90.60;;;;;;2584870;54;20263;31
2022/03/03 12:16:30;;;;;;;32.65;22.17;;;8.90;90.40;;;;;;2584397;54;20062;31
2022/03/03 12:19:15;;;;;;;28.70;21.00;;;8.80;90.60;;;;;;2584428;54;20034;31
2022/03/03 12:21:50;;;;;;;32.58;20.27;;;8.70;90.50;;;;;;2585306;54;20919;31
2022/03/03 12:24:33;;;;;;;35.45;23.45;;;8.70;90.80;;;;;;2585161;54;20036;31
2022/03/03 12:27:16;;;;;;;34.40;23.20;;;8.50;91.40;;;;;;2603593;46;22262;31
2022/03/03 12:29:57;;;;;;;35.58;22.77;;;8.50;91.40;;;;;;2585155;54;20030;31
2022/03/03 12:33:06;;;;;;;33.33;20.92;;;8.40;91.70;;;;;;2585067;54;20168;31
2022/03/03 12:35:41;;;;;;;45.55;26.20;;;8.30;91.10;;;;;;2603465;46;20815;31
2022/03/03 12:41:23;;;;;;;40.93;22.90;;;8.20;91.70;;;;;;2585070;54;20489;31
2022/03/03 12:44:05;;;;;;;39.07;25.27;;;8.00;91.80;;;;;;2682108;39;20636;31
2022/03/03 12:46:41;;;;;;;38.60;22.70;;;7.90;92.20;;;;;;2682266;39;21709;31
2022/03/03 12:49:21;;;;;;;30.77;19.23;;;7.80;92.40;;;;;;2585075;54;21685;31
2022/03/03 12:51:58;;;;;;;36.65;21.55;;;7.60;92.30;;;;;;2585238;54;20254;31
2022/03/03 12:54:33;;;;;;;30.73;21.15;;;7.60;93.10;;;;;;2603845;46;20786;31
2022/03/03 12:57:09;;;;;;;28.25;18.95;;;7.50;92.60;;;;;;2584912;54;20976;31
2022/03/03 12:59:49;;;;;;;37.87;24.77;;;7.50;92.20;;;;;;2585068;54;20483;31
2022/03/03 13:02:27;;;;;;;34.13;24.00;;;7.50;93.60;;;;;;2584159;54;20774;31
2022/03/03 13:05:12;;;;;;;36.20;22.70;;;7.50;94.00;;;;;;2584207;54;20855;31
2022/03/03 13:07:57;;;;;;;38.15;22.55;;;7.40;93.90;;;;;;2584171;54;20917;31
2022/03/03 13:13:47;;;;;;;30.80;21.80;;;7.40;93.60;;;;;;2584304;54;20667;31
2022/03/03 13:19:23;;;;;;;30.87;21.50;;;7.30;93.90;;;;;;2585496;46;21060;31
2022/03/03 13:22:02;;;;;;;37.17;22.07;;;7.30;94.10;;;;;;2682661;39;21474;31
2022/03/03 13:24:39;;;;;;;35.40;22.15;;;7.30;93.80;;;;;;2584869;54;20951;31
2022/03/03 13:27:12;;;;;;;;;;;7.20;94.80;;;;;;2603643;46;20697;31
2022/03/03 13:29:47;;;;;;;31.80;20.90;;;7.20;94.50;;;;;;2584326;54;20873;31
2022/03/03 13:32:24;;;;;;;32.83;21.13;;;7.20;94.30;;;;;;2583823;54;20188;31
2022/03/03 13:35:06;;;;;;;34.13;20.60;;;7.10;94.50;;;;;;2584214;54;20045;31
2022/03/03 13:37:43;;;;;;;31.25;19.90;;;7.10;94.80;;;;;;2584740;54;20851;31
2022/03/03 13:40:22;;;;;;;29.65;19.90;;;7.10;94.70;;;;;;2585072;54;20048;31
2022/03/03 13:46:00;;;;;;;29.08;18.77;;;7.10;95.60;;;;;;2682637;39;20487;31
2022/03/03 13:48:37;;;;;;;30.23;18.02;;;7.00;95.10;;;;;;2584999;54;20034;31
2022/03/03 13:51:11;;;;;;;37.65;18.55;;;7.00;95.70;;;;;;2585394;54;20987;31
2022/03/03 13:54:02;;;;;;;33.40;20.60;;;6.90;96.20;;;;;;2603140;46;20034;31
2022/03/03 13:56:37;;;;;;;29.00;18.35;;;7.00;96.70;;;;;;2584937;54;20919;31
2022/03/03 13:59:15;;;;;;;37.35;19.50;;;6.90;96.60;;;;;;2584937;54;20872;31
2022/03/03 14:01:51;;;;;;;28.65;17.70;;;6.80;96.60;;;;;;2584120;54;20795;31
2022/03/03 14:04:28;;;;;;;26.80;18.77;;;6.80;97.20;;;;;;2584188;54;20027;31
2022/03/03 14:07:04;;;;;;;27.27;17.57;;;6.80;97.10;;;;;;2584651;54;20340;31
2022/03/03 14:09:46;;;;;;;28.88;16.98;;;6.70;97.10;;;;;;2602833;47;20054;31
2022/03/03 14:24:23;;;;;;;32.55;17.05;;;6.50;99.10;;;;;;2584790;54;20524;31
2022/03/03 14:27:14;;;;;;;28.85;15.85;;;6.50;99.40;;;;;;2584926;54;20840;31
2022/03/03 14:32:53;;;;;;;28.10;14.93;;;6.30;98.90;;;;;;2584840;54;20980;31
2022/03/03 14:44:41;;;;;;;47.40;29.00;;;6.00;99.90;;;;;;2583706;54;20029;31
2022/03/03 14:47:16;;;;;;;45.30;26.80;;;6.00;99.90;;;;;;2583723;54;20056;31
2022/03/03 14:50:03;;;;;;;41.50;25.33;;;5.90;99.90;;;;;;2584078;54;20048;31
2022/03/03 14:52:39;;;;;;;42.50;26.40;;;5.80;99.90;;;;;;2584522;54;20031;31
2022/03/03 15:01:35;;;;;;;56.67;33.78;;;5.60;99.90;;;;;;2584728;54;20022;31
2022/03/03 15:16:20;;;;;;;75.55;45.58;;;4.90;99.90;;;;;;2682731;39;20460;31
2022/03/03 15:22:11;;;;;;;74.75;42.03;;;4.70;99.90;;;;;;2584729;54;20993;31
2022/03/03 15:24:55;;;;;;;72.75;41.10;;;4.50;99.90;;;;;;2584945;54;20026;31
2022/03/03 15:27:43;;;;;;;70.10;31.45;;;4.30;99.90;;;;;;2584676;54;20055;31
2022/03/03 15:30:17;;;;;;;77.70;41.40;;;4.10;99.90;;;;;;2603486;46;20031;31
2022/03/03 15:32:57;;;;;;;64.90;35.03;;;4.00;99.90;;;;;;2584674;54;20052;31
2022/03/03 15:38:23;;;;;;;89.00;45.40;;;4.00;99.90;;;;;;2585743;54;20027;31
2022/03/03 15:46:23;;;;;;;69.15;36.40;;;3.50;99.90;;;;;;2585293;54;20093;31
2022/03/03 15:51:57;;;;;;;65.10;33.17;;;3.10;99.90;;;;;;2603353;54;20092;31
2022/03/03 15:54:36;;;;;;;68.97;35.05;;;2.90;99.90;;;;;;2593607;46;20959;31
2022/03/03 16:07:00;;;;;;;66.43;34.27;;;2.20;99.90;;;;;;2582947;54;20458;31
2022/03/03 16:09:38;;;;;;;74.13;36.08;;;2.10;99.90;;;;;;2585755;54;20246;31
2022/03/03 16:12:15;;;;;;;75.80;35.60;;;2.00;99.90;;;;;;2585348;54;20034;31
2022/03/03 16:14:52;;;;;;;70.38;35.63;;;2.00;99.90;;;;;;2585374;54;20075;31
2022/03/03 16:17:44;;;;;;;76.60;37.60;;;1.80;99.90;;;;;;2585238;54;20038;31
2022/03/03 16:20:23;;;;;;;95.88;46.92;;;1.80;99.90;;;;;;2603729;46;20022;31
2022/03/03 16:23:00;;;;;;;85.25;38.60;;;1.80;99.90;;;;;;2584752;54;20900;31
2022/03/03 16:25:33;;;;;;;73.15;37.80;;;1.70;99.90;;;;;;2585536;54;21296;31
2022/03/03 16:28:11;;;;;;;71.77;34.37;;;1.70;99.90;;;;;;2584503;54;20080;31
2022/03/03 16:30:45;;;;;;;78.80;40.53;;;1.60;99.90;;;;;;2584559;54;20089;31
2022/03/03 16:33:18;;;;;;;77.97;38.83;;;1.50;99.90;;;;;;2585643;54;20064;31
2022/03/03 16:35:54;;;;;;;78.13;37.97;;;1.40;99.90;;;;;;2603801;46;21039;31
2022/03/03 16:38:30;;;;;;;;;;;1.30;99.90;;;;;;2584721;54;21021;31